Terminal Aerodrome Forecast
Issued by NWS

Home | Current Version | Previous Version | Text Only | Print | Product List | Glossary On
Versions: 1 2 3 4 5 6 7 8 9 10 11 12 13 14 15
000
FTAK31 PAFA 061158
TAFAUN
TAF
PAUN 061158Z 0612/0712 07008KT P6SM FEW080
     FM062000 24006KT P6SM SCT050
     FM062300 33013KT P6SM VCSH BKN080
     FM070900 07006KT P6SM SCT080=

USA.gov is the U.S. government's official web portal to all federal, state and local government web resources and services.